sensor_id;sensor_type;location;lat;lon;timestamp;pressure;altitude;pressure_sealevel;temperature;humidity
44351;BME280;62766;62.622;17.912;2023-09-19T00:00:07;100208.85;;;13.35;79.38
44351;BME280;62766;62.622;17.912;2023-09-19T00:02:35;100208.15;;;13.27;80.60
44351;BME280;62766;62.622;17.912;2023-09-19T00:05:04;100202.06;;;13.17;81.47
44351;BME280;62766;62.622;17.912;2023-09-19T00:07:32;100200.23;;;13.19;81.92
44351;BME280;62766;62.622;17.912;2023-09-19T00:10:00;100187.79;;;13.25;82.62
44351;BME280;62766;62.622;17.912;2023-09-19T00:12:28;100184.96;;;13.26;83.54
44351;BME280;62766;62.622;17.912;2023-09-19T00:14:58;100174.86;;;13.25;83.96
44351;BME280;62766;62.622;17.912;2023-09-19T00:17:26;100165.84;;;13.18;84.57
44351;BME280;62766;62.622;17.912;2023-09-19T00:19:54;100152.98;;;13.12;85.19
44351;BME280;62766;62.622;17.912;2023-09-19T00:22:22;100149.68;;;13.33;85.22
44351;BME280;62766;62.622;17.912;2023-09-19T00:24:51;100156.06;;;13.14;84.03
44351;BME280;62766;62.622;17.912;2023-09-19T00:27:19;100160.22;;;13.25;83.49
44351;BME280;62766;62.622;17.912;2023-09-19T00:29:47;100158.28;;;13.22;83.39
44351;BME280;62766;62.622;17.912;2023-09-19T00:32:15;100151.16;;;13.27;83.31
44351;BME280;62766;62.622;17.912;2023-09-19T00:34:43;100139.56;;;13.20;83.67
44351;BME280;62766;62.622;17.912;2023-09-19T00:37:12;100131.13;;;13.36;83.93
44351;BME280;62766;62.622;17.912;2023-09-19T00:39:41;100132.39;;;13.22;83.91
44351;BME280;62766;62.622;17.912;2023-09-19T00:42:09;100130.47;;;13.21;84.21
44351;BME280;62766;62.622;17.912;2023-09-19T00:44:46;100123.25;;;13.13;84.36
44351;BME280;62766;62.622;17.912;2023-09-19T00:47:14;100117.37;;;13.28;84.38
44351;BME280;62766;62.622;17.912;2023-09-19T00:49:42;100115.44;;;13.25;84.32
44351;BME280;62766;62.622;17.912;2023-09-19T00:52:11;100108.67;;;13.22;84.19
44351;BME280;62766;62.622;17.912;2023-09-19T00:54:40;100099.20;;;13.32;84.53
44351;BME280;62766;62.622;17.912;2023-09-19T00:57:08;100091.64;;;13.20;84.91
44351;BME280;62766;62.622;17.912;2023-09-19T00:59:37;100083.80;;;13.34;84.90
44351;BME280;62766;62.622;17.912;2023-09-19T01:02:06;100082.29;;;13.30;85.03
44351;BME280;62766;62.622;17.912;2023-09-19T01:04:35;100074.32;;;13.28;85.10
44351;BME280;62766;62.622;17.912;2023-09-19T01:07:05;100071.80;;;13.44;84.98
44351;BME280;62766;62.622;17.912;2023-09-19T01:09:33;100069.40;;;13.53;84.40
44351;BME280;62766;62.622;17.912;2023-09-19T01:12:03;100066.23;;;13.63;83.99
44351;BME280;62766;62.622;17.912;2023-09-19T01:14:40;100059.88;;;13.61;83.90
44351;BME280;62766;62.622;17.912;2023-09-19T01:17:17;100055.57;;;13.55;83.61
44351;BME280;62766;62.622;17.912;2023-09-19T01:20:08;100041.66;;;13.52;83.48
44351;BME280;62766;62.622;17.912;2023-09-19T01:22:48;100032.28;;;13.64;83.30
44351;BME280;62766;62.622;17.912;2023-09-19T01:25:38;100029.26;;;13.69;83.35
44351;BME280;62766;62.622;17.912;2023-09-19T01:28:20;100016.72;;;13.68;82.96
44351;BME280;62766;62.622;17.912;2023-09-19T01:30:59;100014.49;;;13.83;83.34
44351;BME280;62766;62.622;17.912;2023-09-19T01:33:53;100011.74;;;13.78;82.94
44351;BME280;62766;62.622;17.912;2023-09-19T01:36:23;100005.50;;;13.84;82.82
44351;BME280;62766;62.622;17.912;2023-09-19T01:38:51;100001.20;;;13.80;82.89
44351;BME280;62766;62.622;17.912;2023-09-19T01:41:24;100000.74;;;13.90;82.66
44351;BME280;62766;62.622;17.912;2023-09-19T01:43:54;99995.61;;;13.86;82.57
44351;BME280;62766;62.622;17.912;2023-09-19T01:46:25;99982.37;;;13.83;82.05
44351;BME280;62766;62.622;17.912;2023-09-19T01:49:06;99977.43;;;13.89;82.27
44351;BME280;62766;62.622;17.912;2023-09-19T01:51:51;99969.21;;;13.83;82.28
44351;BME280;62766;62.622;17.912;2023-09-19T01:54:26;99963.07;;;13.84;82.65
44351;BME280;62766;62.622;17.912;2023-09-19T01:57:01;99956.68;;;13.91;82.68
44351;BME280;62766;62.622;17.912;2023-09-19T01:59:36;99950.76;;;13.79;82.76
44351;BME280;62766;62.622;17.912;2023-09-19T02:02:09;99941.39;;;13.88;82.83
44351;BME280;62766;62.622;17.912;2023-09-19T02:04:39;99931.63;;;13.92;82.93
44351;BME280;62766;62.622;17.912;2023-09-19T02:07:07;99928.35;;;13.88;82.99
44351;BME280;62766;62.622;17.912;2023-09-19T02:09:37;99915.90;;;14.18;82.98
44351;BME280;62766;62.622;17.912;2023-09-19T02:12:06;99903.75;;;14.08;82.85
44351;BME280;62766;62.622;17.912;2023-09-19T02:14:35;99896.49;;;14.11;82.57
44351;BME280;62766;62.622;17.912;2023-09-19T02:17:03;99893.90;;;14.04;82.81
44351;BME280;62766;62.622;17.912;2023-09-19T02:19:31;99885.85;;;14.07;83.12
44351;BME280;62766;62.622;17.912;2023-09-19T02:21:59;99882.88;;;14.14;83.12
44351;BME280;62766;62.622;17.912;2023-09-19T02:24:27;99871.59;;;13.98;83.19
44351;BME280;62766;62.622;17.912;2023-09-19T02:26:55;99864.22;;;14.12;83.26
44351;BME280;62766;62.622;17.912;2023-09-19T02:29:23;99860.87;;;14.20;83.15
44351;BME280;62766;62.622;17.912;2023-09-19T02:31:52;99850.49;;;14.27;83.21
44351;BME280;62766;62.622;17.912;2023-09-19T02:34:20;99848.45;;;14.32;83.42
44351;BME280;62766;62.622;17.912;2023-09-19T02:36:48;99841.02;;;14.37;83.24
44351;BME280;62766;62.622;17.912;2023-09-19T02:39:16;99830.60;;;14.43;83.30
44351;BME280;62766;62.622;17.912;2023-09-19T02:41:44;99819.24;;;14.31;83.30
44351;BME280;62766;62.622;17.912;2023-09-19T02:44:12;99809.65;;;14.35;83.27
44351;BME280;62766;62.622;17.912;2023-09-19T02:46:40;99797.85;;;14.43;83.39
44351;BME280;62766;62.622;17.912;2023-09-19T02:49:09;99799.08;;;14.30;83.35
44351;BME280;62766;62.622;17.912;2023-09-19T02:51:37;99788.54;;;14.33;83.70
44351;BME280;62766;62.622;17.912;2023-09-19T02:54:05;99782.51;;;14.34;83.85
44351;BME280;62766;62.622;17.912;2023-09-19T02:56:35;99778.81;;;14.24;84.27
44351;BME280;62766;62.622;17.912;2023-09-19T02:59:03;99781.53;;;14.35;84.82
44351;BME280;62766;62.622;17.912;2023-09-19T03:01:31;99772.63;;;14.32;85.14
44351;BME280;62766;62.622;17.912;2023-09-19T03:03:59;99760.62;;;14.36;85.34
44351;BME280;62766;62.622;17.912;2023-09-19T03:06:28;99760.15;;;14.29;85.71
44351;BME280;62766;62.622;17.912;2023-09-19T03:08:57;99759.02;;;14.22;85.78
44351;BME280;62766;62.622;17.912;2023-09-19T03:11:26;99754.93;;;14.34;86.23
44351;BME280;62766;62.622;17.912;2023-09-19T03:13:54;99745.53;;;14.30;86.73
44351;BME280;62766;62.622;17.912;2023-09-19T03:16:22;99736.73;;;14.26;86.93
44351;BME280;62766;62.622;17.912;2023-09-19T03:18:51;99730.71;;;14.25;87.09
44351;BME280;62766;62.622;17.912;2023-09-19T03:21:19;99726.79;;;14.32;87.36
44351;BME280;62766;62.622;17.912;2023-09-19T03:23:47;99717.62;;;14.20;87.73
44351;BME280;62766;62.622;17.912;2023-09-19T03:26:15;99715.62;;;14.24;87.73
44351;BME280;62766;62.622;17.912;2023-09-19T03:28:43;99706.86;;;14.28;87.80
44351;BME280;62766;62.622;17.912;2023-09-19T03:31:11;99699.08;;;14.16;88.02
44351;BME280;62766;62.622;17.912;2023-09-19T03:33:39;99690.65;;;14.31;88.24
44351;BME280;62766;62.622;17.912;2023-09-19T03:36:08;99691.24;;;14.14;88.52
44351;BME280;62766;62.622;17.912;2023-09-19T03:38:36;99684.40;;;13.94;88.68
44351;BME280;62766;62.622;17.912;2023-09-19T03:41:04;99679.68;;;14.29;89.20
44351;BME280;62766;62.622;17.912;2023-09-19T03:43:33;99678.47;;;14.17;89.12
44351;BME280;62766;62.622;17.912;2023-09-19T03:46:01;99672.61;;;14.21;89.20
44351;BME280;62766;62.622;17.912;2023-09-19T03:48:30;99662.61;;;14.18;89.47
44351;BME280;62766;62.622;17.912;2023-09-19T03:50:59;99656.85;;;14.24;89.70
44351;BME280;62766;62.622;17.912;2023-09-19T03:53:27;99652.42;;;14.24;89.67
44351;BME280;62766;62.622;17.912;2023-09-19T03:55:55;99651.53;;;14.27;89.79
44351;BME280;62766;62.622;17.912;2023-09-19T03:58:23;99641.71;;;14.31;89.83
44351;BME280;62766;62.622;17.912;2023-09-19T04:03:39;99633.41;;;14.23;90.40
44351;BME280;62766;62.622;17.912;2023-09-19T04:06:08;99629.33;;;14.25;90.38
44351;BME280;62766;62.622;17.912;2023-09-19T04:08:36;99621.62;;;14.34;90.43
44351;BME280;62766;62.622;17.912;2023-09-19T04:11:04;99619.38;;;14.28;90.52
44351;BME280;62766;62.622;17.912;2023-09-19T04:13:33;99611.60;;;14.34;90.42
44351;BME280;62766;62.622;17.912;2023-09-19T04:16:03;99606.51;;;14.25;90.63
44351;BME280;62766;62.622;17.912;2023-09-19T04:18:33;99598.88;;;14.23;90.68
44351;BME280;62766;62.622;17.912;2023-09-19T04:21:02;99596.18;;;14.29;90.71
44351;BME280;62766;62.622;17.912;2023-09-19T04:23:30;99587.60;;;14.29;90.99
44351;BME280;62766;62.622;17.912;2023-09-19T04:26:00;99586.00;;;14.22;91.32
44351;BME280;62766;62.622;17.912;2023-09-19T04:28:28;99579.39;;;14.26;91.40
44351;BME280;62766;62.622;17.912;2023-09-19T04:30:56;99576.18;;;14.27;91.53
44351;BME280;62766;62.622;17.912;2023-09-19T04:33:25;99569.73;;;14.30;91.77
44351;BME280;62766;62.622;17.912;2023-09-19T04:35:53;99554.95;;;14.30;92.03
44351;BME280;62766;62.622;17.912;2023-09-19T04:38:21;99555.43;;;14.23;92.16
44351;BME280;62766;62.622;17.912;2023-09-19T04:40:49;99543.57;;;14.31;92.57
44351;BME280;62766;62.622;17.912;2023-09-19T04:43:18;99539.58;;;14.22;92.54
44351;BME280;62766;62.622;17.912;2023-09-19T04:45:46;99534.28;;;14.27;92.66
44351;BME280;62766;62.622;17.912;2023-09-19T04:48:14;99526.99;;;14.39;92.65
44351;BME280;62766;62.622;17.912;2023-09-19T04:50:42;99510.35;;;14.34;92.73
44351;BME280;62766;62.622;17.912;2023-09-19T04:53:10;99507.79;;;14.22;92.87
44351;BME280;62766;62.622;17.912;2023-09-19T04:55:38;99503.01;;;14.32;93.13
44351;BME280;62766;62.622;17.912;2023-09-19T04:58:07;99490.76;;;14.24;93.08
44351;BME280;62766;62.622;17.912;2023-09-19T05:00:35;99482.88;;;14.35;93.42
44351;BME280;62766;62.622;17.912;2023-09-19T05:03:03;99478.12;;;14.31;93.40
44351;BME280;62766;62.622;17.912;2023-09-19T05:05:33;99470.92;;;14.20;93.60
44351;BME280;62766;62.622;17.912;2023-09-19T05:08:03;99467.18;;;14.33;93.75
44351;BME280;62766;62.622;17.912;2023-09-19T05:10:33;99458.37;;;14.21;93.90
44351;BME280;62766;62.622;17.912;2023-09-19T05:13:03;99447.32;;;14.26;94.16
44351;BME280;62766;62.622;17.912;2023-09-19T05:15:31;99435.97;;;14.27;94.14
44351;BME280;62766;62.622;17.912;2023-09-19T05:18:01;99429.34;;;14.37;94.31
44351;BME280;62766;62.622;17.912;2023-09-19T05:20:29;99423.25;;;14.36;94.33
44351;BME280;62766;62.622;17.912;2023-09-19T05:22:58;99419.17;;;14.32;94.31
44351;BME280;62766;62.622;17.912;2023-09-19T05:25:27;99409.60;;;14.42;94.48
44351;BME280;62766;62.622;17.912;2023-09-19T05:27:56;99406.50;;;14.38;94.53
44351;BME280;62766;62.622;17.912;2023-09-19T05:30:25;99402.44;;;14.43;94.64
44351;BME280;62766;62.622;17.912;2023-09-19T05:32:53;99393.60;;;14.43;94.46
44351;BME280;62766;62.622;17.912;2023-09-19T05:35:23;99393.28;;;14.42;94.69
44351;BME280;62766;62.622;17.912;2023-09-19T05:37:53;99390.26;;;14.44;94.76
44351;BME280;62766;62.622;17.912;2023-09-19T05:40:22;99385.94;;;14.55;94.90
44351;BME280;62766;62.622;17.912;2023-09-19T05:42:50;99391.35;;;14.52;95.17
44351;BME280;62766;62.622;17.912;2023-09-19T05:45:18;99386.19;;;14.41;95.54
44351;BME280;62766;62.622;17.912;2023-09-19T05:47:46;99375.67;;;14.30;95.98
44351;BME280;62766;62.622;17.912;2023-09-19T05:50:15;99371.87;;;14.48;96.00
44351;BME280;62766;62.622;17.912;2023-09-19T05:52:43;99364.56;;;14.36;96.47
44351;BME280;62766;62.622;17.912;2023-09-19T05:55:11;99358.35;;;14.49;97.06
44351;BME280;62766;62.622;17.912;2023-09-19T05:57:39;99351.98;;;14.30;97.37
44351;BME280;62766;62.622;17.912;2023-09-19T06:00:08;99346.78;;;14.47;97.57
44351;BME280;62766;62.622;17.912;2023-09-19T06:02:37;99340.96;;;14.38;97.81
44351;BME280;62766;62.622;17.912;2023-09-19T06:05:06;99332.29;;;14.35;97.79
44351;BME280;62766;62.622;17.912;2023-09-19T06:07:35;99329.20;;;14.52;97.58
44351;BME280;62766;62.622;17.912;2023-09-19T06:10:03;99324.34;;;14.57;97.30
44351;BME280;62766;62.622;17.912;2023-09-19T06:12:32;99324.14;;;14.59;97.16
44351;BME280;62766;62.622;17.912;2023-09-19T06:15:01;99320.26;;;14.56;97.07
44351;BME280;62766;62.622;17.912;2023-09-19T06:17:29;99315.66;;;14.60;96.96
44351;BME280;62766;62.622;17.912;2023-09-19T06:19:58;99308.84;;;14.53;97.10
44351;BME280;62766;62.622;17.912;2023-09-19T06:22:26;99308.98;;;14.65;96.96
44351;BME280;62766;62.622;17.912;2023-09-19T06:24:54;99299.73;;;14.57;96.87
44351;BME280;62766;62.622;17.912;2023-09-19T06:27:22;99293.24;;;14.80;97.01
44351;BME280;62766;62.622;17.912;2023-09-19T06:29:50;99290.71;;;14.58;96.99
44351;BME280;62766;62.622;17.912;2023-09-19T06:32:18;99283.60;;;14.67;97.12
44351;BME280;62766;62.622;17.912;2023-09-19T06:34:51;99279.49;;;14.62;97.04
44351;BME280;62766;62.622;17.912;2023-09-19T06:37:20;99273.87;;;14.58;97.23
44351;BME280;62766;62.622;17.912;2023-09-19T06:39:48;99268.16;;;14.74;97.25
44351;BME280;62766;62.622;17.912;2023-09-19T06:42:16;99254.68;;;14.62;97.35
44351;BME280;62766;62.622;17.912;2023-09-19T06:44:44;99243.57;;;14.77;97.32
44351;BME280;62766;62.622;17.912;2023-09-19T06:47:12;99236.00;;;14.82;97.14
44351;BME280;62766;62.622;17.912;2023-09-19T06:49:40;99232.11;;;14.81;97.05
44351;BME280;62766;62.622;17.912;2023-09-19T06:52:09;99220.32;;;14.84;96.77
44351;BME280;62766;62.622;17.912;2023-09-19T06:54:37;99215.94;;;15.10;96.33
44351;BME280;62766;62.622;17.912;2023-09-19T06:57:05;99203.30;;;14.92;96.29
44351;BME280;62766;62.622;17.912;2023-09-19T06:59:33;99188.80;;;15.08;96.14
44351;BME280;62766;62.622;17.912;2023-09-19T07:02:03;99183.70;;;15.04;96.06
44351;BME280;62766;62.622;17.912;2023-09-19T07:04:32;99179.05;;;15.14;96.11
44351;BME280;62766;62.622;17.912;2023-09-19T07:07:01;99169.17;;;15.08;96.36
44351;BME280;62766;62.622;17.912;2023-09-19T07:09:29;99159.14;;;15.04;96.48
44351;BME280;62766;62.622;17.912;2023-09-19T07:11:57;99149.67;;;15.09;96.93
44351;BME280;62766;62.622;17.912;2023-09-19T07:14:25;99139.62;;;15.25;96.91
44351;BME280;62766;62.622;17.912;2023-09-19T07:16:53;99130.19;;;15.03;97.13
44351;BME280;62766;62.622;17.912;2023-09-19T07:19:22;99125.60;;;15.10;97.44
44351;BME280;62766;62.622;17.912;2023-09-19T07:21:50;99112.80;;;15.06;97.43
44351;BME280;62766;62.622;17.912;2023-09-19T07:24:18;99108.48;;;15.22;97.74
44351;BME280;62766;62.622;17.912;2023-09-19T07:26:46;99100.78;;;15.02;97.71
44351;BME280;62766;62.622;17.912;2023-09-19T07:29:15;99097.83;;;15.05;97.97
44351;BME280;62766;62.622;17.912;2023-09-19T07:31:43;99086.66;;;15.07;98.52
44351;BME280;62766;62.622;17.912;2023-09-19T07:34:11;99083.84;;;15.17;98.97
44351;BME280;62766;62.622;17.912;2023-09-19T07:36:39;99078.32;;;15.00;99.20
44351;BME280;62766;62.622;17.912;2023-09-19T07:39:07;99072.80;;;15.03;99.64
44351;BME280;62766;62.622;17.912;2023-09-19T07:41:35;99065.29;;;15.05;100.00
44351;BME280;62766;62.622;17.912;2023-09-19T07:44:04;99064.22;;;14.95;100.00
44351;BME280;62766;62.622;17.912;2023-09-19T07:49:00;99057.04;;;15.01;100.00
44351;BME280;62766;62.622;17.912;2023-09-19T07:51:28;99063.58;;;15.09;100.00
44351;BME280;62766;62.622;17.912;2023-09-19T07:53:56;99058.31;;;15.09;100.00
44351;BME280;62766;62.622;17.912;2023-09-19T07:56:25;99051.20;;;15.01;100.00
44351;BME280;62766;62.622;17.912;2023-09-19T07:58:53;99049.90;;;15.07;100.00
44351;BME280;62766;62.622;17.912;2023-09-19T08:01:21;99040.57;;;15.20;100.00
44351;BME280;62766;62.622;17.912;2023-09-19T08:03:49;99036.51;;;15.13;100.00
44351;BME280;62766;62.622;17.912;2023-09-19T08:06:17;99032.30;;;15.18;100.00
44351;BME280;62766;62.622;17.912;2023-09-19T08:08:46;99027.00;;;15.19;100.00
44351;BME280;62766;62.622;17.912;2023-09-19T08:11:14;99020.90;;;15.07;100.00
44351;BME280;62766;62.622;17.912;2023-09-19T08:13:42;99015.26;;;15.12;100.00
44351;BME280;62766;62.622;17.912;2023-09-19T08:16:10;99006.54;;;14.98;100.00
44351;BME280;62766;62.622;17.912;2023-09-19T08:18:38;99012.32;;;15.17;100.00
44351;BME280;62766;62.622;17.912;2023-09-19T08:21:07;99005.47;;;15.13;100.00
44351;BME280;62766;62.622;17.912;2023-09-19T08:23:35;99000.56;;;15.17;100.00
44351;BME280;62766;62.622;17.912;2023-09-19T08:26:03;98993.60;;;15.15;100.00
44351;BME280;62766;62.622;17.912;2023-09-19T08:28:33;98992.08;;;15.26;100.00
44351;BME280;62766;62.622;17.912;2023-09-19T08:31:02;98989.84;;;15.14;100.00
44351;BME280;62766;62.622;17.912;2023-09-19T08:33:32;98984.34;;;15.08;100.00
44351;BME280;62766;62.622;17.912;2023-09-19T08:36:01;98977.08;;;15.29;100.00
44351;BME280;62766;62.622;17.912;2023-09-19T08:38:31;98977.64;;;15.15;100.00
44351;BME280;62766;62.622;17.912;2023-09-19T08:41:00;98970.49;;;15.30;100.00
44351;BME280;62766;62.622;17.912;2023-09-19T08:43:29;98965.32;;;15.28;100.00
44351;BME280;62766;62.622;17.912;2023-09-19T08:46:05;98965.13;;;15.32;100.00
44351;BME280;62766;62.622;17.912;2023-09-19T08:48:39;98953.64;;;15.34;100.00
44351;BME280;62766;62.622;17.912;2023-09-19T08:51:15;98945.91;;;15.45;100.00
44351;BME280;62766;62.622;17.912;2023-09-19T08:53:51;98942.27;;;15.46;100.00
44351;BME280;62766;62.622;17.912;2023-09-19T08:56:22;98941.91;;;15.48;100.00
44351;BME280;62766;62.622;17.912;2023-09-19T08:58:57;98935.91;;;15.43;100.00
44351;BME280;62766;62.622;17.912;2023-09-19T09:01:27;98932.27;;;15.51;100.00
44351;BME280;62766;62.622;17.912;2023-09-19T09:03:56;98929.36;;;15.49;100.00
44351;BME280;62766;62.622;17.912;2023-09-19T09:06:24;98929.92;;;15.42;100.00
44351;BME280;62766;62.622;17.912;2023-09-19T09:08:53;98919.72;;;15.63;100.00
44351;BME280;62766;62.622;17.912;2023-09-19T09:11:21;98914.05;;;15.52;100.00
44351;BME280;62766;62.622;17.912;2023-09-19T09:13:50;98905.34;;;15.54;100.00
44351;BME280;62766;62.622;17.912;2023-09-19T09:16:18;98894.28;;;15.67;100.00
44351;BME280;62766;62.622;17.912;2023-09-19T09:18:47;98889.54;;;15.59;100.00
44351;BME280;62766;62.622;17.912;2023-09-19T09:21:15;98876.51;;;15.56;100.00
44351;BME280;62766;62.622;17.912;2023-09-19T09:23:43;98872.28;;;15.56;100.00
44351;BME280;62766;62.622;17.912;2023-09-19T09:26:11;98870.46;;;15.61;100.00
44351;BME280;62766;62.622;17.912;2023-09-19T09:28:45;98863.00;;;15.61;100.00
44351;BME280;62766;62.622;17.912;2023-09-19T09:31:22;98856.03;;;15.55;100.00
44351;BME280;62766;62.622;17.912;2023-09-19T09:33:53;98847.54;;;15.57;100.00
44351;BME280;62766;62.622;17.912;2023-09-19T09:36:34;98835.61;;;15.53;100.00
44351;BME280;62766;62.622;17.912;2023-09-19T09:39:04;98831.66;;;15.49;100.00
44351;BME280;62766;62.622;17.912;2023-09-19T09:41:36;98828.64;;;15.78;100.00
44351;BME280;62766;62.622;17.912;2023-09-19T09:44:12;98823.43;;;15.64;100.00
44351;BME280;62766;62.622;17.912;2023-09-19T09:46:43;98814.29;;;15.75;100.00
44351;BME280;62766;62.622;17.912;2023-09-19T09:49:12;98808.48;;;15.88;100.00
44351;BME280;62766;62.622;17.912;2023-09-19T09:51:41;98798.85;;;15.73;100.00
44351;BME280;62766;62.622;17.912;2023-09-19T09:54:11;98795.66;;;15.73;100.00
44351;BME280;62766;62.622;17.912;2023-09-19T09:56:52;98786.45;;;15.86;100.00
44351;BME280;62766;62.622;17.912;2023-09-19T09:59:20;98782.75;;;15.82;100.00
44351;BME280;62766;62.622;17.912;2023-09-19T10:03:31;98795.57;;;15.83;100.00
44351;BME280;62766;62.622;17.912;2023-09-19T10:06:00;98781.84;;;15.83;100.00
44351;BME280;62766;62.622;17.912;2023-09-19T10:08:28;98768.13;;;15.77;100.00
44351;BME280;62766;62.622;17.912;2023-09-19T10:10:57;98760.93;;;15.92;100.00
44351;BME280;62766;62.622;17.912;2023-09-19T10:13:28;98756.70;;;15.91;100.00
44351;BME280;62766;62.622;17.912;2023-09-19T10:15:58;98746.31;;;15.92;100.00
44351;BME280;62766;62.622;17.912;2023-09-19T10:18:36;98746.51;;;15.94;100.00
44351;BME280;62766;62.622;17.912;2023-09-19T10:21:05;98741.43;;;15.83;100.00
44351;BME280;62766;62.622;17.912;2023-09-19T10:23:40;98733.82;;;15.91;100.00
44351;BME280;62766;62.622;17.912;2023-09-19T10:26:11;98728.71;;;15.86;100.00
44351;BME280;62766;62.622;17.912;2023-09-19T10:28:40;98729.95;;;15.90;100.00
44351;BME280;62766;62.622;17.912;2023-09-19T10:31:10;98724.64;;;16.01;100.00
44351;BME280;62766;62.622;17.912;2023-09-19T10:33:39;98715.27;;;15.87;100.00
44351;BME280;62766;62.622;17.912;2023-09-19T10:36:10;98707.88;;;15.88;100.00
44351;BME280;62766;62.622;17.912;2023-09-19T10:38:43;98701.29;;;15.86;100.00
44351;BME280;62766;62.622;17.912;2023-09-19T10:41:14;98698.19;;;15.81;100.00
44351;BME280;62766;62.622;17.912;2023-09-19T10:43:45;98692.12;;;15.88;100.00
44351;BME280;62766;62.622;17.912;2023-09-19T10:46:17;98684.03;;;15.92;100.00
44351;BME280;62766;62.622;17.912;2023-09-19T10:48:45;98686.13;;;15.87;100.00
44351;BME280;62766;62.622;17.912;2023-09-19T10:51:16;98679.52;;;16.01;100.00
44351;BME280;62766;62.622;17.912;2023-09-19T10:53:51;98672.31;;;15.91;100.00
44351;BME280;62766;62.622;17.912;2023-09-19T10:56:24;98659.84;;;16.03;100.00
44351;BME280;62766;62.622;17.912;2023-09-19T10:59:06;98651.87;;;15.99;100.00
44351;BME280;62766;62.622;17.912;2023-09-19T11:01:52;98648.98;;;15.95;100.00
44351;BME280;62766;62.622;17.912;2023-09-19T11:04:24;98640.98;;;16.10;100.00
44351;BME280;62766;62.622;17.912;2023-09-19T11:07:01;98635.81;;;16.02;100.00
44351;BME280;62766;62.622;17.912;2023-09-19T11:09:47;98627.15;;;16.18;100.00
44351;BME280;62766;62.622;17.912;2023-09-19T11:12:48;98621.46;;;15.99;100.00
44351;BME280;62766;62.622;17.912;2023-09-19T11:16:21;98618.64;;;16.11;100.00
44351;BME280;62766;62.622;17.912;2023-09-19T11:18:52;98611.88;;;16.02;100.00
44351;BME280;62766;62.622;17.912;2023-09-19T11:21:53;98604.54;;;15.98;100.00
44351;BME280;62766;62.622;17.912;2023-09-19T11:24:32;98597.93;;;16.05;100.00
44351;BME280;62766;62.622;17.912;2023-09-19T11:27:16;98588.85;;;15.91;100.00
44351;BME280;62766;62.622;17.912;2023-09-19T11:29:45;98590.46;;;15.83;100.00
44351;BME280;62766;62.622;17.912;2023-09-19T11:32:13;98584.32;;;15.92;100.00
44351;BME280;62766;62.622;17.912;2023-09-19T11:34:45;98582.20;;;15.92;100.00
44351;BME280;62766;62.622;17.912;2023-09-19T11:39:00;98576.16;;;15.95;100.00
44351;BME280;62766;62.622;17.912;2023-09-19T11:41:37;98563.19;;;16.07;100.00
44351;BME280;62766;62.622;17.912;2023-09-19T11:44:37;98548.52;;;15.92;100.00
44351;BME280;62766;62.622;17.912;2023-09-19T11:47:07;98544.22;;;15.89;100.00
44351;BME280;62766;62.622;17.912;2023-09-19T11:49:40;98534.61;;;16.02;100.00
44351;BME280;62766;62.622;17.912;2023-09-19T11:52:09;98529.22;;;15.93;100.00
44351;BME280;62766;62.622;17.912;2023-09-19T11:54:40;98524.48;;;16.20;100.00
44351;BME280;62766;62.622;17.912;2023-09-19T11:57:09;98522.54;;;16.00;100.00
44351;BME280;62766;62.622;17.912;2023-09-19T11:59:38;98519.90;;;15.96;100.00
44351;BME280;62766;62.622;17.912;2023-09-19T12:02:11;98513.33;;;15.86;100.00
44351;BME280;62766;62.622;17.912;2023-09-19T12:04:45;98513.64;;;16.11;100.00
44351;BME280;62766;62.622;17.912;2023-09-19T12:07:15;98511.54;;;15.96;100.00
44351;BME280;62766;62.622;17.912;2023-09-19T12:09:46;98504.46;;;15.98;100.00
44351;BME280;62766;62.622;17.912;2023-09-19T12:12:19;98491.23;;;15.91;100.00
44351;BME280;62766;62.622;17.912;2023-09-19T12:14:48;98486.30;;;15.85;100.00
44351;BME280;62766;62.622;17.912;2023-09-19T12:17:17;98484.28;;;15.91;100.00
44351;BME280;62766;62.622;17.912;2023-09-19T12:19:50;98477.28;;;15.99;100.00
44351;BME280;62766;62.622;17.912;2023-09-19T12:22:28;98477.90;;;15.98;100.00
44351;BME280;62766;62.622;17.912;2023-09-19T12:25:06;98472.86;;;16.08;100.00
44351;BME280;62766;62.622;17.912;2023-09-19T12:27:41;98466.99;;;16.10;100.00
44351;BME280;62766;62.622;17.912;2023-09-19T12:30:10;98459.41;;;16.00;100.00
44351;BME280;62766;62.622;17.912;2023-09-19T12:32:40;98456.85;;;16.03;100.00
44351;BME280;62766;62.622;17.912;2023-09-19T12:35:09;98452.17;;;16.00;100.00
44351;BME280;62766;62.622;17.912;2023-09-19T12:37:43;98448.30;;;16.13;100.00
44351;BME280;62766;62.622;17.912;2023-09-19T12:40:13;98435.71;;;16.10;100.00
44351;BME280;62766;62.622;17.912;2023-09-19T12:42:42;98437.38;;;16.11;100.00
44351;BME280;62766;62.622;17.912;2023-09-19T12:45:12;98434.15;;;16.22;100.00
44351;BME280;62766;62.622;17.912;2023-09-19T12:48:17;98436.30;;;16.23;100.00
44351;BME280;62766;62.622;17.912;2023-09-19T12:51:17;98429.53;;;16.20;100.00
44351;BME280;62766;62.622;17.912;2023-09-19T12:53:46;98416.52;;;16.41;100.00
44351;BME280;62766;62.622;17.912;2023-09-19T12:56:26;98404.34;;;16.33;100.00
44351;BME280;62766;62.622;17.912;2023-09-19T12:58:55;98411.00;;;16.37;100.00
44351;BME280;62766;62.622;17.912;2023-09-19T13:01:26;98401.07;;;16.32;100.00
44351;BME280;62766;62.622;17.912;2023-09-19T13:04:11;98404.71;;;16.32;100.00
44351;BME280;62766;62.622;17.912;2023-09-19T13:06:39;98394.12;;;16.43;100.00
44351;BME280;62766;62.622;17.912;2023-09-19T13:09:08;98404.35;;;16.47;100.00
44351;BME280;62766;62.622;17.912;2023-09-19T13:11:37;98411.41;;;16.32;100.00